sensor_id;sensor_type;location;lat;lon;timestamp;temperature;humidity
73121;DHT22;61307;49.628;-1.624;2023-09-08T00:01:54;23.40;71.50
73121;DHT22;61307;49.628;-1.624;2023-09-08T00:04:36;23.30;71.30
73121;DHT22;61307;49.628;-1.624;2023-09-08T00:07:05;23.30;71.40
73121;DHT22;61307;49.628;-1.624;2023-09-08T00:09:33;23.30;71.30
73121;DHT22;61307;49.628;-1.624;2023-09-08T00:12:01;23.30;71.30
73121;DHT22;61307;49.628;-1.624;2023-09-08T00:14:29;23.30;71.40
73121;DHT22;61307;49.628;-1.624;2023-09-08T00:16:56;23.30;71.30
73121;DHT22;61307;49.628;-1.624;2023-09-08T00:19:25;23.30;71.30
73121;DHT22;61307;49.628;-1.624;2023-09-08T00:21:54;23.30;71.30
73121;DHT22;61307;49.628;-1.624;2023-09-08T00:24:22;23.30;72.10
73121;DHT22;61307;49.628;-1.624;2023-09-08T00:26:50;23.30;71.30
73121;DHT22;61307;49.628;-1.624;2023-09-08T00:29:17;23.30;71.20
73121;DHT22;61307;49.628;-1.624;2023-09-08T00:31:46;23.30;71.30
73121;DHT22;61307;49.628;-1.624;2023-09-08T00:34:14;23.30;71.20
73121;DHT22;61307;49.628;-1.624;2023-09-08T00:36:41;23.30;71.20
73121;DHT22;61307;49.628;-1.624;2023-09-08T00:39:10;23.30;71.20
73121;DHT22;61307;49.628;-1.624;2023-09-08T00:41:49;23.30;71.20
73121;DHT22;61307;49.628;-1.624;2023-09-08T00:44:17;23.30;71.20
73121;DHT22;61307;49.628;-1.624;2023-09-08T00:46:44;23.30;71.10
73121;DHT22;61307;49.628;-1.624;2023-09-08T00:49:12;23.30;71.10
73121;DHT22;61307;49.628;-1.624;2023-09-08T00:51:40;23.20;71.00
73121;DHT22;61307;49.628;-1.624;2023-09-08T00:54:09;23.30;71.10
73121;DHT22;61307;49.628;-1.624;2023-09-08T00:56:42;23.30;71.10
73121;DHT22;61307;49.628;-1.624;2023-09-08T00:59:28;23.30;71.10
73121;DHT22;61307;49.628;-1.624;2023-09-08T01:02:25;23.30;71.10
73121;DHT22;61307;49.628;-1.624;2023-09-08T01:05:18;23.30;71.10
73121;DHT22;61307;49.628;-1.624;2023-09-08T01:07:50;23.30;71.90
73121;DHT22;61307;49.628;-1.624;2023-09-08T01:10:19;23.30;71.10
73121;DHT22;61307;49.628;-1.624;2023-09-08T01:12:49;23.20;71.00
73121;DHT22;61307;49.628;-1.624;2023-09-08T01:15:17;23.20;71.00
73121;DHT22;61307;49.628;-1.624;2023-09-08T01:17:44;23.20;70.90
73121;DHT22;61307;49.628;-1.624;2023-09-08T01:20:17;23.20;70.90
73121;DHT22;61307;49.628;-1.624;2023-09-08T01:23:09;23.20;70.90
73121;DHT22;61307;49.628;-1.624;2023-09-08T01:25:46;23.20;70.90
73121;DHT22;61307;49.628;-1.624;2023-09-08T01:28:15;23.20;70.90
73121;DHT22;61307;49.628;-1.624;2023-09-08T01:30:44;23.20;70.90
73121;DHT22;61307;49.628;-1.624;2023-09-08T01:33:12;23.20;70.90
73121;DHT22;61307;49.628;-1.624;2023-09-08T01:35:40;23.20;70.90
73121;DHT22;61307;49.628;-1.624;2023-09-08T01:38:07;23.20;70.90
73121;DHT22;61307;49.628;-1.624;2023-09-08T01:40:35;23.20;70.90
73121;DHT22;61307;49.628;-1.624;2023-09-08T01:43:07;23.20;70.90
73121;DHT22;61307;49.628;-1.624;2023-09-08T01:45:35;23.20;70.90
73121;DHT22;61307;49.628;-1.624;2023-09-08T01:48:02;23.30;71.00
73121;DHT22;61307;49.628;-1.624;2023-09-08T01:50:30;23.20;70.80
73121;DHT22;61307;49.628;-1.624;2023-09-08T01:52:57;23.20;70.90
73121;DHT22;61307;49.628;-1.624;2023-09-08T01:59:09;23.20;70.70
73121;DHT22;61307;49.628;-1.624;2023-09-08T02:01:37;23.20;70.80
73121;DHT22;61307;49.628;-1.624;2023-09-08T02:04:06;23.20;70.80
73121;DHT22;61307;49.628;-1.624;2023-09-08T02:06:33;23.20;70.80
73121;DHT22;61307;49.628;-1.624;2023-09-08T02:09:01;23.20;70.80
73121;DHT22;61307;49.628;-1.624;2023-09-08T02:11:28;23.20;70.70
73121;DHT22;61307;49.628;-1.624;2023-09-08T02:13:56;23.20;70.70
73121;DHT22;61307;49.628;-1.624;2023-09-08T02:16:24;23.20;70.70
73121;DHT22;61307;49.628;-1.624;2023-09-08T02:18:52;23.10;70.60
73121;DHT22;61307;49.628;-1.624;2023-09-08T02:21:24;23.20;70.70
73121;DHT22;61307;49.628;-1.624;2023-09-08T02:23:51;23.20;70.70
73121;DHT22;61307;49.628;-1.624;2023-09-08T02:26:32;23.20;70.70
73121;DHT22;61307;49.628;-1.624;2023-09-08T02:29:00;23.10;70.60
73121;DHT22;61307;49.628;-1.624;2023-09-08T02:31:29;23.10;70.60
73121;DHT22;61307;49.628;-1.624;2023-09-08T02:33:56;23.10;70.50
73121;DHT22;61307;49.628;-1.624;2023-09-08T02:36:24;23.10;70.50
73121;DHT22;61307;49.628;-1.624;2023-09-08T02:38:52;23.10;70.50
73121;DHT22;61307;49.628;-1.624;2023-09-08T02:41:20;23.10;70.50
73121;DHT22;61307;49.628;-1.624;2023-09-08T02:43:47;23.10;70.50
73121;DHT22;61307;49.628;-1.624;2023-09-08T02:46:15;23.10;70.50
73121;DHT22;61307;49.628;-1.624;2023-09-08T02:48:44;23.10;70.50
73121;DHT22;61307;49.628;-1.624;2023-09-08T02:51:12;23.10;70.50
73121;DHT22;61307;49.628;-1.624;2023-09-08T02:53:39;23.10;70.50
73121;DHT22;61307;49.628;-1.624;2023-09-08T02:56:06;23.10;70.50
73121;DHT22;61307;49.628;-1.624;2023-09-08T02:58:38;23.10;70.40
73121;DHT22;61307;49.628;-1.624;2023-09-08T03:01:12;23.10;70.40
73121;DHT22;61307;49.628;-1.624;2023-09-08T03:03:48;23.10;70.50
73121;DHT22;61307;49.628;-1.624;2023-09-08T03:06:19;23.10;70.40
73121;DHT22;61307;49.628;-1.624;2023-09-08T03:08:49;23.10;70.40
73121;DHT22;61307;49.628;-1.624;2023-09-08T03:11:16;23.10;70.50
73121;DHT22;61307;49.628;-1.624;2023-09-08T03:13:44;23.10;70.40
73121;DHT22;61307;49.628;-1.624;2023-09-08T03:16:12;23.20;70.60
73121;DHT22;61307;49.628;-1.624;2023-09-08T03:18:39;23.00;70.30
73121;DHT22;61307;49.628;-1.624;2023-09-08T03:21:08;23.10;70.40
73121;DHT22;61307;49.628;-1.624;2023-09-08T03:23:37;23.10;70.40
73121;DHT22;61307;49.628;-1.624;2023-09-08T03:26:04;23.10;70.40
73121;DHT22;61307;49.628;-1.624;2023-09-08T03:28:32;23.10;70.40
73121;DHT22;61307;49.628;-1.624;2023-09-08T03:31:00;23.10;70.40
73121;DHT22;61307;49.628;-1.624;2023-09-08T03:33:28;23.10;71.10
73121;DHT22;61307;49.628;-1.624;2023-09-08T03:35:56;23.00;70.20
73121;DHT22;61307;49.628;-1.624;2023-09-08T03:38:28;23.10;70.30
73121;DHT22;61307;49.628;-1.624;2023-09-08T03:40:57;23.00;70.20
73121;DHT22;61307;49.628;-1.624;2023-09-08T03:43:26;23.10;70.30
73121;DHT22;61307;49.628;-1.624;2023-09-08T03:45:54;23.10;70.40
73121;DHT22;61307;49.628;-1.624;2023-09-08T03:48:53;23.00;70.20
73121;DHT22;61307;49.628;-1.624;2023-09-08T03:51:26;23.10;70.30
73121;DHT22;61307;49.628;-1.624;2023-09-08T03:54:20;23.10;70.30
73121;DHT22;61307;49.628;-1.624;2023-09-08T04:00:30;23.10;70.30
73121;DHT22;61307;49.628;-1.624;2023-09-08T04:02:57;23.00;70.20
73121;DHT22;61307;49.628;-1.624;2023-09-08T04:05:25;23.10;70.30
73121;DHT22;61307;49.628;-1.624;2023-09-08T04:07:53;23.10;70.30
73121;DHT22;61307;49.628;-1.624;2023-09-08T04:10:22;23.00;70.20
73121;DHT22;61307;49.628;-1.624;2023-09-08T04:12:50;23.00;70.20
73121;DHT22;61307;49.628;-1.624;2023-09-08T04:15:18;23.00;70.20
73121;DHT22;61307;49.628;-1.624;2023-09-08T04:17:46;23.00;70.20
73121;DHT22;61307;49.628;-1.624;2023-09-08T04:20:13;23.00;70.20
73121;DHT22;61307;49.628;-1.624;2023-09-08T04:25:58;23.00;70.20
73121;DHT22;61307;49.628;-1.624;2023-09-08T04:28:25;23.00;70.20
73121;DHT22;61307;49.628;-1.624;2023-09-08T04:30:53;23.00;70.20
73121;DHT22;61307;49.628;-1.624;2023-09-08T04:33:20;23.00;70.20
73121;DHT22;61307;49.628;-1.624;2023-09-08T04:35:50;23.00;70.20
73121;DHT22;61307;49.628;-1.624;2023-09-08T04:38:18;23.00;70.20
73121;DHT22;61307;49.628;-1.624;2023-09-08T04:40:45;23.00;70.20
73121;DHT22;61307;49.628;-1.624;2023-09-08T04:43:18;23.00;70.20
73121;DHT22;61307;49.628;-1.624;2023-09-08T04:45:46;23.00;70.20
73121;DHT22;61307;49.628;-1.624;2023-09-08T04:48:14;23.00;70.10
73121;DHT22;61307;49.628;-1.624;2023-09-08T04:50:42;23.00;70.10
73121;DHT22;61307;49.628;-1.624;2023-09-08T04:53:09;23.00;70.10
73121;DHT22;61307;49.628;-1.624;2023-09-08T04:55:37;23.00;70.20
73121;DHT22;61307;49.628;-1.624;2023-09-08T04:58:05;23.00;70.10
73121;DHT22;61307;49.628;-1.624;2023-09-08T05:00:34;23.00;70.90
73121;DHT22;61307;49.628;-1.624;2023-09-08T05:03:07;23.00;70.10
73121;DHT22;61307;49.628;-1.624;2023-09-08T05:08:46;23.00;70.10
73121;DHT22;61307;49.628;-1.624;2023-09-08T05:11:15;22.90;70.10
73121;DHT22;61307;49.628;-1.624;2023-09-08T05:13:43;23.10;70.20
73121;DHT22;61307;49.628;-1.624;2023-09-08T05:16:12;23.00;70.20
73121;DHT22;61307;49.628;-1.624;2023-09-08T05:18:40;23.10;70.30
73121;DHT22;61307;49.628;-1.624;2023-09-08T05:21:08;23.00;70.10
73121;DHT22;61307;49.628;-1.624;2023-09-08T05:23:35;23.00;70.20
73121;DHT22;61307;49.628;-1.624;2023-09-08T05:26:03;23.00;70.20
73121;DHT22;61307;49.628;-1.624;2023-09-08T05:28:30;23.00;70.20
73121;DHT22;61307;49.628;-1.624;2023-09-08T05:30:58;23.00;70.10
73121;DHT22;61307;49.628;-1.624;2023-09-08T05:33:27;22.90;70.10
73121;DHT22;61307;49.628;-1.624;2023-09-08T05:35:54;23.00;70.10
73121;DHT22;61307;49.628;-1.624;2023-09-08T05:38:22;22.90;70.00
73121;DHT22;61307;49.628;-1.624;2023-09-08T05:40:54;23.00;70.10
73121;DHT22;61307;49.628;-1.624;2023-09-08T05:43:23;23.00;70.10
73121;DHT22;61307;49.628;-1.624;2023-09-08T05:45:50;23.00;70.20
73121;DHT22;61307;49.628;-1.624;2023-09-08T05:48:18;22.90;70.10
73121;DHT22;61307;49.628;-1.624;2023-09-08T05:50:47;23.00;70.20
73121;DHT22;61307;49.628;-1.624;2023-09-08T05:53:15;23.00;70.20
73121;DHT22;61307;49.628;-1.624;2023-09-08T05:56:15;23.00;70.20
73121;DHT22;61307;49.628;-1.624;2023-09-08T05:58:43;23.00;70.20
73121;DHT22;61307;49.628;-1.624;2023-09-08T06:01:10;23.00;70.20
73121;DHT22;61307;49.628;-1.624;2023-09-08T06:03:38;23.00;70.20
73121;DHT22;61307;49.628;-1.624;2023-09-08T06:06:07;23.00;70.20
73121;DHT22;61307;49.628;-1.624;2023-09-08T06:08:36;23.00;70.20
73121;DHT22;61307;49.628;-1.624;2023-09-08T06:11:06;23.00;70.20
73121;DHT22;61307;49.628;-1.624;2023-09-08T06:13:34;23.00;70.20
73121;DHT22;61307;49.628;-1.624;2023-09-08T06:16:01;22.90;70.10
73121;DHT22;61307;49.628;-1.624;2023-09-08T06:18:29;23.00;70.20
73121;DHT22;61307;49.628;-1.624;2023-09-08T06:20:57;23.00;70.20
73121;DHT22;61307;49.628;-1.624;2023-09-08T06:26:28;23.00;70.10
73121;DHT22;61307;49.628;-1.624;2023-09-08T06:28:55;23.10;70.20
73121;DHT22;61307;49.628;-1.624;2023-09-08T06:31:26;23.10;70.20
73121;DHT22;61307;49.628;-1.624;2023-09-08T06:33:54;23.00;70.00
73121;DHT22;61307;49.628;-1.624;2023-09-08T06:36:24;23.20;70.20
73121;DHT22;61307;49.628;-1.624;2023-09-08T06:38:53;23.20;70.20
73121;DHT22;61307;49.628;-1.624;2023-09-08T06:41:21;23.10;70.10
73121;DHT22;61307;49.628;-1.624;2023-09-08T06:43:51;23.10;70.00
73121;DHT22;61307;49.628;-1.624;2023-09-08T06:46:32;23.20;70.10
73121;DHT22;61307;49.628;-1.624;2023-09-08T06:49:00;23.10;70.00
73121;DHT22;61307;49.628;-1.624;2023-09-08T06:51:30;23.20;70.00
73121;DHT22;61307;49.628;-1.624;2023-09-08T06:57:38;23.20;70.00
73121;DHT22;61307;49.628;-1.624;2023-09-08T07:00:26;23.30;70.00
73121;DHT22;61307;49.628;-1.624;2023-09-08T07:03:04;23.30;69.70
73121;DHT22;61307;49.628;-1.624;2023-09-08T07:08:36;23.20;69.40
73121;DHT22;61307;49.628;-1.624;2023-09-08T07:11:05;23.30;69.70
73121;DHT22;61307;49.628;-1.624;2023-09-08T07:13:36;23.40;69.80
73121;DHT22;61307;49.628;-1.624;2023-09-08T07:16:04;23.40;69.80
73121;DHT22;61307;49.628;-1.624;2023-09-08T07:18:32;23.40;69.80
73121;DHT22;61307;49.628;-1.624;2023-09-08T07:21:03;23.40;69.80
73121;DHT22;61307;49.628;-1.624;2023-09-08T07:23:31;23.40;69.70
73121;DHT22;61307;49.628;-1.624;2023-09-08T07:26:01;23.40;69.80
73121;DHT22;61307;49.628;-1.624;2023-09-08T07:28:29;23.50;69.80
73121;DHT22;61307;49.628;-1.624;2023-09-08T07:31:22;23.40;69.80
73121;DHT22;61307;49.628;-1.624;2023-09-08T07:33:49;23.50;69.90
73121;DHT22;61307;49.628;-1.624;2023-09-08T07:36:36;23.50;69.90
73121;DHT22;61307;49.628;-1.624;2023-09-08T07:39:08;23.50;69.90
73121;DHT22;61307;49.628;-1.624;2023-09-08T07:41:37;23.50;69.90
73121;DHT22;61307;49.628;-1.624;2023-09-08T07:44:22;23.60;70.00
73121;DHT22;61307;49.628;-1.624;2023-09-08T07:46:53;23.60;70.10
73121;DHT22;61307;49.628;-1.624;2023-09-08T07:49:33;23.60;70.00
73121;DHT22;61307;49.628;-1.624;2023-09-08T07:55:21;23.70;70.00
73121;DHT22;61307;49.628;-1.624;2023-09-08T08:01:36;23.70;69.90
73121;DHT22;61307;49.628;-1.624;2023-09-08T08:04:12;23.80;70.10
73121;DHT22;61307;49.628;-1.624;2023-09-08T08:06:40;23.80;70.20
73121;DHT22;61307;49.628;-1.624;2023-09-08T08:09:08;23.80;70.20
73121;DHT22;61307;49.628;-1.624;2023-09-08T08:11:36;23.80;70.20
73121;DHT22;61307;49.628;-1.624;2023-09-08T08:25:06;23.90;70.50
73121;DHT22;61307;49.628;-1.624;2023-09-08T08:27:35;24.00;70.60
73121;DHT22;61307;49.628;-1.624;2023-09-08T08:30:08;23.90;70.40
73121;DHT22;61307;49.628;-1.624;2023-09-08T08:36:02;23.80;70.30
73121;DHT22;61307;49.628;-1.624;2023-09-08T08:58:42;24.00;70.20
73121;DHT22;61307;49.628;-1.624;2023-09-08T09:01:26;23.90;70.10
73121;DHT22;61307;49.628;-1.624;2023-09-08T09:03:55;24.00;70.20
73121;DHT22;61307;49.628;-1.624;2023-09-08T09:06:24;24.00;70.20
73121;DHT22;61307;49.628;-1.624;2023-09-08T09:08:51;24.00;70.20
73121;DHT22;61307;49.628;-1.624;2023-09-08T09:11:19;24.00;70.20
73121;DHT22;61307;49.628;-1.624;2023-09-08T09:14:24;24.10;70.30
73121;DHT22;61307;49.628;-1.624;2023-09-08T09:17:04;24.10;70.30
73121;DHT22;61307;49.628;-1.624;2023-09-08T09:22:57;24.20;70.30
73121;DHT22;61307;49.628;-1.624;2023-09-08T09:30:16;24.20;70.10
73121;DHT22;61307;49.628;-1.624;2023-09-08T09:32:30;24.20;70.00
73121;DHT22;61307;49.628;-1.624;2023-09-08T09:41:41;24.10;69.60
73121;DHT22;61307;49.628;-1.624;2023-09-08T09:44:11;24.20;69.60
73121;DHT22;61307;49.628;-1.624;2023-09-08T10:25:05;24.30;68.60
73121;DHT22;61307;49.628;-1.624;2023-09-08T10:30:30;24.30;68.60
73121;DHT22;61307;49.628;-1.624;2023-09-08T10:33:15;24.30;68.50
73121;DHT22;61307;49.628;-1.624;2023-09-08T10:36:34;24.30;68.40
73121;DHT22;61307;49.628;-1.624;2023-09-08T10:49:57;24.30;68.10
73121;DHT22;61307;49.628;-1.624;2023-09-08T10:56:06;24.40;68.20
73121;DHT22;61307;49.628;-1.624;2023-09-08T10:59:17;24.40;68.20
73121;DHT22;61307;49.628;-1.624;2023-09-08T11:02:13;24.40;68.10
73121;DHT22;61307;49.628;-1.624;2023-09-08T11:12:07;24.40;67.70
73121;DHT22;61307;49.628;-1.624;2023-09-08T11:14:36;24.40;67.70
73121;DHT22;61307;49.628;-1.624;2023-09-08T11:17:25;24.40;67.70
73121;DHT22;61307;49.628;-1.624;2023-09-08T11:22:44;24.40;67.80
73121;DHT22;61307;49.628;-1.624;2023-09-08T11:25:26;24.40;67.80
73121;DHT22;61307;49.628;-1.624;2023-09-08T11:31:01;24.40;67.80
73121;DHT22;61307;49.628;-1.624;2023-09-08T11:33:57;24.40;67.70
73121;DHT22;61307;49.628;-1.624;2023-09-08T11:36:40;24.40;67.70
73121;DHT22;61307;49.628;-1.624;2023-09-08T11:39:09;24.50;67.90
73121;DHT22;61307;49.628;-1.624;2023-09-08T11:41:37;24.50;68.00
73121;DHT22;61307;49.628;-1.624;2023-09-08T11:44:15;24.50;68.20
73121;DHT22;61307;49.628;-1.624;2023-09-08T11:47:10;24.40;68.30
73121;DHT22;61307;49.628;-1.624;2023-09-08T11:49:44;24.50;68.80
73121;DHT22;61307;49.628;-1.624;2023-09-08T11:52:31;24.40;68.80
73121;DHT22;61307;49.628;-1.624;2023-09-08T11:55:28;24.40;69.10
73121;DHT22;61307;49.628;-1.624;2023-09-08T11:57:56;24.40;69.00
73121;DHT22;61307;49.628;-1.624;2023-09-08T12:04:24;24.40;69.30
73121;DHT22;61307;49.628;-1.624;2023-09-08T12:06:54;24.40;69.40
73121;DHT22;61307;49.628;-1.624;2023-09-08T12:09:26;24.50;69.70
73121;DHT22;61307;49.628;-1.624;2023-09-08T12:11:54;24.50;69.80
73121;DHT22;61307;49.628;-1.624;2023-09-08T12:14:40;24.60;70.00
73121;DHT22;61307;49.628;-1.624;2023-09-08T12:17:25;24.60;69.90
73121;DHT22;61307;49.628;-1.624;2023-09-08T12:20:13;24.50;69.90
73121;DHT22;61307;49.628;-1.624;2023-09-08T12:23:06;24.60;70.10
73121;DHT22;61307;49.628;-1.624;2023-09-08T12:26:20;24.60;70.30
73121;DHT22;61307;49.628;-1.624;2023-09-08T12:28:53;24.60;70.20
73121;DHT22;61307;49.628;-1.624;2023-09-08T12:43:46;24.70;70.10
73121;DHT22;61307;49.628;-1.624;2023-09-08T12:46:18;24.70;70.10
73121;DHT22;61307;49.628;-1.624;2023-09-08T12:52:17;24.70;70.30
73121;DHT22;61307;49.628;-1.624;2023-09-08T12:54:48;24.70;70.20
73121;DHT22;61307;49.628;-1.624;2023-09-08T12:57:37;24.70;70.20
73121;DHT22;61307;49.628;-1.624;2023-09-08T13:03:24;24.70;70.30
73121;DHT22;61307;49.628;-1.624;2023-09-08T13:05:52;24.80;70.70
73121;DHT22;61307;49.628;-1.624;2023-09-08T13:08:42;24.80;70.60
73121;DHT22;61307;49.628;-1.624;2023-09-08T13:11:24;24.90;71.00
73121;DHT22;61307;49.628;-1.624;2023-09-08T13:14:05;24.80;71.00
73121;DHT22;61307;49.628;-1.624;2023-09-08T13:16:35;24.80;71.00
73121;DHT22;61307;49.628;-1.624;2023-09-08T13:22:37;24.90;71.10
73121;DHT22;61307;49.628;-1.624;2023-09-08T13:28:58;25.00;71.20
73121;DHT22;61307;49.628;-1.624;2023-09-08T13:31:45;24.90;70.90
73121;DHT22;61307;49.628;-1.624;2023-09-08T13:42:47;24.90;70.60
73121;DHT22;61307;49.628;-1.624;2023-09-08T13:45:48;24.90;70.60
73121;DHT22;61307;49.628;-1.624;2023-09-08T13:48:19;24.90;70.50
73121;DHT22;61307;49.628;-1.624;2023-09-08T13:51:25;24.90;70.40
73121;DHT22;61307;49.628;-1.624;2023-09-08T13:54:31;24.90;70.50
73121;DHT22;61307;49.628;-1.624;2023-09-08T13:57:22;24.90;70.40
73121;DHT22;61307;49.628;-1.624;2023-09-08T14:03:33;25.00;70.40
73121;DHT22;61307;49.628;-1.624;2023-09-08T14:16:51;25.00;70.10
73121;DHT22;61307;49.628;-1.624;2023-09-08T14:26:14;25.10;70.20
73121;DHT22;61307;49.628;-1.624;2023-09-08T14:29:27;25.10;70.00
73121;DHT22;61307;49.628;-1.624;2023-09-08T14:45:14;25.10;70.20
73121;DHT22;61307;49.628;-1.624;2023-09-08T15:47:20;25.20;70.20
73121;DHT22;61307;49.628;-1.624;2023-09-08T15:52:55;25.30;69.70
73121;DHT22;61307;49.628;-1.624;2023-09-08T16:00:51;25.20;70.30
73121;DHT22;61307;49.628;-1.624;2023-09-08T16:05:07;25.20;70.60
73121;DHT22;61307;49.628;-1.624;2023-09-08T16:07:44;25.20;70.90
73121;DHT22;61307;49.628;-1.624;2023-09-08T16:10:14;25.20;71.30
73121;DHT22;61307;49.628;-1.624;2023-09-08T16:12:41;25.30;71.40
73121;DHT22;61307;49.628;-1.624;2023-09-08T16:15:19;25.30;71.40
73121;DHT22;61307;49.628;-1.624;2023-09-08T16:17:50;25.40;71.50
73121;DHT22;61307;49.628;-1.624;2023-09-08T16:20:22;25.50;71.60
73121;DHT22;61307;49.628;-1.624;2023-09-08T16:22:52;25.50;71.60
73121;DHT22;61307;49.628;-1.624;2023-09-08T16:25:23;25.50;71.60
73121;DHT22;61307;49.628;-1.624;2023-09-08T16:27:50;25.60;71.60
73121;DHT22;61307;49.628;-1.624;2023-09-08T16:30:18;25.60;71.30
73121;DHT22;61307;49.628;-1.624;2023-09-08T16:32:49;25.60;71.10
73121;DHT22;61307;49.628;-1.624;2023-09-08T16:35:16;25.70;71.10
73121;DHT22;61307;49.628;-1.624;2023-09-08T16:37:46;25.70;71.00
73121;DHT22;61307;49.628;-1.624;2023-09-08T16:40:16;25.70;71.00
73121;DHT22;61307;49.628;-1.624;2023-09-08T16:42:44;25.70;71.00
73121;DHT22;61307;49.628;-1.624;2023-09-08T16:45:15;25.80;71.10
73121;DHT22;61307;49.628;-1.624;2023-09-08T16:47:49;25.70;71.00
73121;DHT22;61307;49.628;-1.624;2023-09-08T16:50:17;25.80;71.00
73121;DHT22;61307;49.628;-1.624;2023-09-08T16:52:48;25.80;71.00
73121;DHT22;61307;49.628;-1.624;2023-09-08T16:55:16;25.80;71.00
73121;DHT22;61307;49.628;-1.624;2023-09-08T16:57:43;25.80;70.80
73121;DHT22;61307;49.628;-1.624;2023-09-08T17:00:11;25.90;71.10
73121;DHT22;61307;49.628;-1.624;2023-09-08T17:02:39;25.90;70.90
73121;DHT22;61307;49.628;-1.624;2023-09-08T17:05:08;25.90;70.90
73121;DHT22;61307;49.628;-1.624;2023-09-08T17:07:36;25.90;70.80
73121;DHT22;61307;49.628;-1.624;2023-09-08T17:10:19;25.90;70.70
73121;DHT22;61307;49.628;-1.624;2023-09-08T17:12:47;25.90;70.60
73121;DHT22;61307;49.628;-1.624;2023-09-08T17:15:34;26.00;70.70
73121;DHT22;61307;49.628;-1.624;2023-09-08T17:18:02;26.00;70.60
73121;DHT22;61307;49.628;-1.624;2023-09-08T17:20:32;26.00;70.50
73121;DHT22;61307;49.628;-1.624;2023-09-08T17:23:53;26.10;70.70
73121;DHT22;61307;49.628;-1.624;2023-09-08T17:33:11;26.10;70.40
73121;DHT22;61307;49.628;-1.624;2023-09-08T17:35:47;26.10;70.30
73121;DHT22;61307;49.628;-1.624;2023-09-08T17:38:28;26.10;70.40
73121;DHT22;61307;49.628;-1.624;2023-09-08T17:40:57;26.10;70.50
73121;DHT22;61307;49.628;-1.624;2023-09-08T17:43:25;26.10;70.50
73121;DHT22;61307;49.628;-1.624;2023-09-08T17:45:52;26.10;71.40
73121;DHT22;61307;49.628;-1.624;2023-09-08T17:48:21;26.10;70.60
73121;DHT22;61307;49.628;-1.624;2023-09-08T17:50:49;26.10;70.50
73121;DHT22;61307;49.628;-1.624;2023-09-08T17:53:20;26.10;70.50
73121;DHT22;61307;49.628;-1.624;2023-09-08T17:55:48;26.10;70.50
73121;DHT22;61307;49.628;-1.624;2023-09-08T17:58:16;26.10;70.40
73121;DHT22;61307;49.628;-1.624;2023-09-08T18:00:43;26.10;70.40
73121;DHT22;61307;49.628;-1.624;2023-09-08T18:03:13;26.10;70.40
73121;DHT22;61307;49.628;-1.624;2023-09-08T18:05:42;26.00;70.30
73121;DHT22;61307;49.628;-1.624;2023-09-08T18:08:10;26.00;70.20
73121;DHT22;61307;49.628;-1.624;2023-09-08T18:10:39;26.00;70.20
73121;DHT22;61307;49.628;-1.624;2023-09-08T18:13:07;26.00;70.20
73121;DHT22;61307;49.628;-1.624;2023-09-08T18:15:34;26.00;70.20
73121;DHT22;61307;49.628;-1.624;2023-09-08T18:18:02;25.90;70.00
73121;DHT22;61307;49.628;-1.624;2023-09-08T18:20:32;25.90;69.80
73121;DHT22;61307;49.628;-1.624;2023-09-08T18:23:01;25.80;69.50
73121;DHT22;61307;49.628;-1.624;2023-09-08T18:25:29;25.80;69.70
73121;DHT22;61307;49.628;-1.624;2023-09-08T18:27:58;25.70;69.90
73121;DHT22;61307;49.628;-1.624;2023-09-08T18:30:28;25.60;69.90
73121;DHT22;61307;49.628;-1.624;2023-09-08T18:32:55;25.50;69.90
73121;DHT22;61307;49.628;-1.624;2023-09-08T18:35:27;25.40;69.80
73121;DHT22;61307;49.628;-1.624;2023-09-08T18:37:58;25.40;70.00
73121;DHT22;61307;49.628;-1.624;2023-09-08T18:40:33;25.30;69.90
73121;DHT22;61307;49.628;-1.624;2023-09-08T18:46:09;25.20;70.80
73121;DHT22;61307;49.628;-1.624;2023-09-08T18:48:37;25.10;70.00
73121;DHT22;61307;49.628;-1.624;2023-09-08T18:51:04;25.10;70.00
73121;DHT22;61307;49.628;-1.624;2023-09-08T18:53:31;25.10;70.10
73121;DHT22;61307;49.628;-1.624;2023-09-08T18:56:01;25.10;70.10
73121;DHT22;61307;49.628;-1.624;2023-09-08T18:58:30;25.00;70.10
73121;DHT22;61307;49.628;-1.624;2023-09-08T19:01:02;25.00;70.10
73121;DHT22;61307;49.628;-1.624;2023-09-08T19:03:30;24.90;70.10
73121;DHT22;61307;49.628;-1.624;2023-09-08T19:06:02;24.90;70.10
73121;DHT22;61307;49.628;-1.624;2023-09-08T19:08:29;24.90;70.10
73121;DHT22;61307;49.628;-1.624;2023-09-08T19:10:57;24.80;70.00
73121;DHT22;61307;49.628;-1.624;2023-09-08T19:13:26;24.80;70.00
73121;DHT22;61307;49.628;-1.624;2023-09-08T19:15:54;24.80;70.10
73121;DHT22;61307;49.628;-1.624;2023-09-08T19:18:21;24.80;70.30
73121;DHT22;61307;49.628;-1.624;2023-09-08T19:20:49;24.80;70.40
73121;DHT22;61307;49.628;-1.624;2023-09-08T19:23:17;24.80;70.50
73121;DHT22;61307;49.628;-1.624;2023-09-08T19:26:13;24.80;70.50
73121;DHT22;61307;49.628;-1.624;2023-09-08T19:28:42;24.80;70.40
73121;DHT22;61307;49.628;-1.624;2023-09-08T19:31:09;24.70;70.30
73121;DHT22;61307;49.628;-1.624;2023-09-08T19:33:37;24.70;70.40
73121;DHT22;61307;49.628;-1.624;2023-09-08T19:36:04;24.80;70.60
73121;DHT22;61307;49.628;-1.624;2023-09-08T19:38:33;24.70;70.60
73121;DHT22;61307;49.628;-1.624;2023-09-08T19:41:01;24.60;70.60
73121;DHT22;61307;49.628;-1.624;2023-09-08T19:43:33;24.70;70.70
73121;DHT22;61307;49.628;-1.624;2023-09-08T19:46:03;24.60;70.70
73121;DHT22;61307;49.628;-1.624;2023-09-08T19:50:59;24.60;70.70
73121;DHT22;61307;49.628;-1.624;2023-09-08T19:53:27;24.60;70.70
73121;DHT22;61307;49.628;-1.624;2023-09-08T19:55:54;24.60;70.70
73121;DHT22;61307;49.628;-1.624;2023-09-08T19:58:25;24.60;70.70
73121;DHT22;61307;49.628;-1.624;2023-09-08T20:07:10;24.50;70.70
73121;DHT22;61307;49.628;-1.624;2023-09-08T20:10:01;24.50;70.70
73121;DHT22;61307;49.628;-1.624;2023-09-08T20:12:28;24.50;70.70
73121;DHT22;61307;49.628;-1.624;2023-09-08T20:14:56;24.50;70.70
73121;DHT22;61307;49.628;-1.624;2023-09-08T20:17:23;24.50;70.70
73121;DHT22;61307;49.628;-1.624;2023-09-08T20:20:10;24.50;70.70
73121;DHT22;61307;49.628;-1.624;2023-09-08T20:22:37;24.50;70.70
73121;DHT22;61307;49.628;-1.624;2023-09-08T20:25:06;24.40;70.60
73121;DHT22;61307;49.628;-1.624;2023-09-08T20:27:35;24.40;70.60
73121;DHT22;61307;49.628;-1.624;2023-09-08T20:30:04;24.40;70.60
73121;DHT22;61307;49.628;-1.624;2023-09-08T20:32:31;24.40;70.60
73121;DHT22;61307;49.628;-1.624;2023-09-08T20:34:59;24.40;70.60
73121;DHT22;61307;49.628;-1.624;2023-09-08T20:37:27;24.40;70.60
73121;DHT22;61307;49.628;-1.624;2023-09-08T20:39:56;24.40;70.60
73121;DHT22;61307;49.628;-1.624;2023-09-08T20:42:27;24.40;70.60
73121;DHT22;61307;49.628;-1.624;2023-09-08T20:44:54;24.40;70.60
73121;DHT22;61307;49.628;-1.624;2023-09-08T20:47:22;24.40;70.60
73121;DHT22;61307;49.628;-1.624;2023-09-08T20:49:49;24.40;70.60
73121;DHT22;61307;49.628;-1.624;2023-09-08T20:52:17;24.40;70.60
73121;DHT22;61307;49.628;-1.624;2023-09-08T20:54:46;24.40;70.60
73121;DHT22;61307;49.628;-1.624;2023-09-08T20:57:15;24.30;70.50